createdAt,value
2018-08-17T00:00:30.998Z,21.33
2018-08-17T00:02:59.694Z,19.47
2018-08-17T00:05:28.348Z,22.33
2018-08-17T00:07:56.965Z,18.70
2018-08-17T00:10:25.583Z,18.97
2018-08-17T00:12:54.230Z,17.43
2018-08-17T00:15:22.818Z,16.37
2018-08-17T00:17:51.457Z,19.43
2018-08-17T00:20:20.117Z,18.33
2018-08-17T00:22:48.740Z,17.73
2018-08-17T00:25:18.208Z,19.03
2018-08-17T00:27:46.805Z,20.10
2018-08-17T00:30:15.399Z,20.73
2018-08-17T00:32:44.045Z,15.00
2018-08-17T00:35:12.653Z,17.67
2018-08-17T00:37:41.286Z,16.33
2018-08-17T00:40:09.917Z,18.20
2018-08-17T00:42:38.551Z,18.40
2018-08-17T00:45:07.457Z,17.63
2018-08-17T00:47:36.177Z,14.37
2018-08-17T00:50:05.243Z,15.07
2018-08-17T00:52:33.832Z,17.70
2018-08-17T00:55:02.454Z,18.47
2018-08-17T00:57:31.049Z,27.03
2018-08-17T00:59:59.677Z,15.47
2018-08-17T01:02:28.265Z,25.37
2018-08-17T01:04:56.905Z,17.47
2018-08-17T01:07:25.543Z,21.63
2018-08-17T01:09:54.233Z,19.40
2018-08-17T01:12:22.876Z,18.10
2018-08-17T01:14:51.513Z,21.73
2018-08-17T01:17:20.127Z,20.50
2018-08-17T01:19:48.777Z,16.53
2018-08-17T01:22:19.204Z,22.60
2018-08-17T01:24:47.845Z,21.63
2018-08-17T01:27:16.418Z,21.50
2018-08-17T01:29:45.030Z,25.07
2018-08-17T01:32:13.651Z,24.57
2018-08-17T01:34:42.349Z,20.00
2018-08-17T01:37:10.928Z,19.27
2018-08-17T01:39:39.548Z,22.00
2018-08-17T01:42:08.160Z,20.50
2018-08-17T01:44:36.811Z,20.17
2018-08-17T01:47:05.453Z,21.20
2018-08-17T01:49:34.081Z,22.50
2018-08-17T01:52:02.698Z,20.87
2018-08-17T01:54:31.294Z,24.87
2018-08-17T01:56:59.932Z,25.93
2018-08-17T01:59:28.505Z,33.47
2018-08-17T02:01:57.147Z,26.00
2018-08-17T02:04:25.729Z,27.60
2018-08-17T02:06:54.380Z,32.60
2018-08-17T02:09:22.989Z,24.80
2018-08-17T02:11:51.581Z,28.47
2018-08-17T02:14:20.185Z,28.73
2018-08-17T02:16:48.765Z,28.60
2018-08-17T02:19:17.371Z,26.53
2018-08-17T02:21:45.993Z,28.90
2018-08-17T02:24:14.620Z,26.60
2018-08-17T02:26:43.243Z,28.30
2018-08-17T02:29:11.859Z,25.20
2018-08-17T02:31:40.548Z,34.20
2018-08-17T02:34:09.165Z,31.63
2018-08-17T02:36:38.082Z,28.93
2018-08-17T02:39:07.378Z,30.33
2018-08-17T02:41:35.999Z,35.53
2018-08-17T02:44:04.741Z,29.97
2018-08-17T02:46:33.321Z,32.83
2018-08-17T02:49:01.981Z,39.67
2018-08-17T02:51:30.588Z,34.40
2018-08-17T02:53:59.213Z,31.27
2018-08-17T02:56:27.940Z,35.63
2018-08-17T02:58:56.595Z,36.80
2018-08-17T03:01:25.223Z,31.20
2018-08-17T03:03:53.833Z,31.07
2018-08-17T03:06:22.440Z,40.77
2018-08-17T03:08:51.119Z,33.60
2018-08-17T03:11:19.705Z,41.33
2018-08-17T03:13:48.326Z,45.50
2018-08-17T03:16:16.938Z,54.13
2018-08-17T03:18:45.557Z,52.33
2018-08-17T03:21:14.138Z,47.90
2018-08-17T03:23:42.749Z,51.43
2018-08-17T03:26:11.505Z,55.50
2018-08-17T03:28:40.120Z,52.17
2018-08-17T03:31:08.981Z,48.97
2018-08-17T03:33:37.610Z,51.07
2018-08-17T03:36:06.317Z,51.00
2018-08-17T03:38:34.905Z,58.47
2018-08-17T03:41:03.586Z,56.43
2018-08-17T03:43:32.164Z,54.67
2018-08-17T03:46:00.806Z,50.90
2018-08-17T03:48:29.436Z,52.23
2018-08-17T03:50:58.057Z,55.10
2018-08-17T03:53:26.634Z,50.57
2018-08-17T03:55:55.261Z,53.20
2018-08-17T03:58:23.839Z,53.33
2018-08-17T04:00:52.489Z,52.57
2018-08-17T04:03:21.088Z,48.83
2018-08-17T04:05:49.774Z,59.50
2018-08-17T04:08:18.366Z,51.50
2018-08-17T04:10:46.976Z,45.73
2018-08-17T04:13:15.559Z,51.70
2018-08-17T04:15:44.185Z,52.40
2018-08-17T04:18:12.826Z,46.20
2018-08-17T04:20:41.450Z,44.90
2018-08-17T04:23:10.029Z,42.70
2018-08-17T04:25:38.657Z,39.97
2018-08-17T04:28:07.272Z,54.10
2018-08-17T04:30:35.924Z,37.20
2018-08-17T04:33:04.569Z,31.87
2018-08-17T04:35:33.245Z,32.40
2018-08-17T04:38:01.839Z,30.90
2018-08-17T04:40:30.495Z,33.13
2018-08-17T04:42:59.109Z,25.30
2018-08-17T04:45:27.689Z,26.33
2018-08-17T04:47:56.353Z,29.53
2018-08-17T04:50:24.930Z,27.20
2018-08-17T04:52:53.622Z,23.43
2018-08-17T04:55:22.200Z,23.27
2018-08-17T04:57:50.877Z,23.43
2018-08-17T05:00:19.460Z,24.73
2018-08-17T05:02:48.065Z,21.73
2018-08-17T05:05:16.661Z,18.63
2018-08-17T05:07:45.308Z,24.73
2018-08-17T05:10:13.921Z,25.77
2018-08-17T05:12:42.556Z,21.60
2018-08-17T05:15:11.168Z,19.33
2018-08-17T05:17:39.788Z,22.80
2018-08-17T05:20:08.365Z,21.60
2018-08-17T05:22:36.990Z,21.07
2018-08-17T05:25:05.980Z,20.60
2018-08-17T05:27:34.645Z,18.50
2018-08-17T05:30:03.298Z,15.27
2018-08-17T05:32:31.904Z,18.70
2018-08-17T05:35:01.891Z,16.80
2018-08-17T05:37:30.531Z,19.73
2018-08-17T05:39:59.229Z,20.30
2018-08-17T05:42:27.806Z,15.63
2018-08-17T05:44:56.461Z,16.50
2018-08-17T05:47:25.074Z,20.03
2018-08-17T05:49:53.725Z,13.90
2018-08-17T05:52:22.309Z,17.47
2018-08-17T05:54:50.989Z,15.93
2018-08-17T05:57:19.585Z,15.13
2018-08-17T05:59:48.194Z,15.43
2018-08-17T06:02:16.789Z,7.53
2018-08-17T06:04:45.417Z,5.97
2018-08-17T06:07:13.982Z,5.23
2018-08-17T06:09:42.637Z,9.23
2018-08-17T06:12:11.233Z,6.20
2018-08-17T06:14:39.853Z,7.03
2018-08-17T06:17:08.445Z,6.20
2018-08-17T06:19:37.065Z,8.40
2018-08-17T06:22:05.790Z,8.43
2018-08-17T06:24:34.461Z,8.47
2018-08-17T06:27:03.177Z,9.90
2018-08-17T06:29:31.773Z,10.93
2018-08-17T06:32:00.485Z,13.93
2018-08-17T06:34:29.064Z,5.60
2018-08-17T06:36:57.693Z,11.80
2018-08-17T06:39:26.289Z,9.70
2018-08-17T06:41:54.919Z,10.53
2018-08-17T06:44:23.550Z,22.10
2018-08-17T06:46:52.295Z,8.53
2018-08-17T06:49:20.925Z,9.40
2018-08-17T06:51:49.609Z,9.40
2018-08-17T06:54:18.214Z,11.83
2018-08-17T06:56:46.837Z,18.87
2018-08-17T06:59:15.430Z,6.97
2018-08-17T07:01:44.064Z,19.67
2018-08-17T07:04:12.642Z,6.97
2018-08-17T07:06:41.347Z,10.17
2018-08-17T07:09:11.000Z,8.47
2018-08-17T07:11:40.189Z,8.83
2018-08-17T07:14:09.452Z,10.47
2018-08-17T07:16:38.527Z,13.20
2018-08-17T07:19:07.146Z,14.40
2018-08-17T07:21:35.937Z,8.97
2018-08-17T07:24:04.514Z,12.50
2018-08-17T07:26:33.142Z,9.53
2018-08-17T07:29:01.758Z,10.97
2018-08-17T07:31:30.386Z,11.87
2018-08-17T07:33:59.036Z,20.13
2018-08-17T07:36:27.598Z,6.73
2018-08-17T07:38:56.216Z,8.30
2018-08-17T07:41:24.817Z,5.40
2018-08-17T07:43:53.441Z,7.50
2018-08-17T07:46:22.082Z,4.87
2018-08-17T07:48:50.749Z,4.97
2018-08-17T07:51:19.309Z,4.90
2018-08-17T07:53:47.945Z,3.20
2018-08-17T07:56:16.550Z,6.30
2018-08-17T07:58:45.171Z,6.70
2018-08-17T08:01:13.766Z,4.07
2018-08-17T08:03:42.382Z,4.27
2018-08-17T08:06:10.986Z,2.27
2018-08-17T08:08:39.677Z,2.27
2018-08-17T08:11:08.805Z,1.80
2018-08-17T08:13:37.398Z,3.10
2018-08-17T08:16:05.989Z,2.67
2018-08-17T08:18:34.652Z,2.77
2018-08-17T08:21:03.286Z,3.17
2018-08-17T08:23:31.891Z,2.83
2018-08-17T08:26:00.641Z,8.83
2018-08-17T08:28:29.238Z,6.30
2018-08-17T08:30:57.973Z,6.20
2018-08-17T08:33:26.638Z,5.80
2018-08-17T08:35:55.256Z,6.20
2018-08-17T08:38:23.869Z,8.57
2018-08-17T08:40:52.521Z,6.80
2018-08-17T08:43:21.145Z,5.27
2018-08-17T08:45:49.811Z,9.00
2018-08-17T08:48:18.417Z,11.57
2018-08-17T08:50:47.133Z,10.17
2018-08-17T08:53:15.730Z,9.30
2018-08-17T08:55:44.361Z,6.03
2018-08-17T08:58:12.980Z,11.17
2018-08-17T09:00:41.753Z,10.07
2018-08-17T09:03:10.370Z,9.73
2018-08-17T09:05:39.077Z,8.73
2018-08-17T09:08:07.742Z,11.00
2018-08-17T09:10:36.334Z,5.30
2018-08-17T09:13:05.025Z,6.97
2018-08-17T09:15:33.649Z,7.20
2018-08-17T09:18:02.320Z,5.93
2018-08-17T09:20:31.780Z,6.60
2018-08-17T09:23:00.409Z,4.67
2018-08-17T09:25:29.053Z,6.70
2018-08-17T09:27:57.681Z,5.23
2018-08-17T09:30:26.298Z,8.23
2018-08-17T09:32:54.928Z,4.70
2018-08-17T09:35:23.578Z,6.33
2018-08-17T09:37:52.278Z,4.10
2018-08-17T09:40:20.885Z,3.80
2018-08-17T09:42:49.497Z,3.43
2018-08-17T09:45:18.082Z,3.70
2018-08-17T09:47:46.709Z,3.40
2018-08-17T09:50:16.081Z,5.33
2018-08-17T09:52:44.725Z,6.07
2018-08-17T09:55:13.350Z,5.13
2018-08-17T09:57:41.984Z,4.60
2018-08-17T10:00:11.158Z,4.70
2018-08-17T10:03:42.790Z,4.77
2018-08-17T10:06:16.729Z,7.53
2018-08-17T10:08:50.604Z,4.23
2018-08-17T10:11:19.221Z,4.10
2018-08-17T10:13:47.834Z,5.80
2018-08-17T10:16:16.419Z,6.20
2018-08-17T10:18:45.926Z,3.93
2018-08-17T10:21:15.588Z,4.70
2018-08-17T10:23:44.069Z,5.87
2018-08-17T10:26:12.707Z,5.27
2018-08-17T10:28:41.334Z,8.93
2018-08-17T10:31:09.997Z,12.70
2018-08-17T10:33:38.609Z,12.27
2018-08-17T10:36:11.270Z,11.57
2018-08-17T10:38:39.908Z,14.40
2018-08-17T10:41:08.517Z,12.17
2018-08-17T10:43:37.129Z,9.97
2018-08-17T10:46:05.740Z,13.90
2018-08-17T10:48:34.383Z,12.13
2018-08-17T10:51:03.041Z,17.20
2018-08-17T10:53:36.816Z,16.57
2018-08-17T10:56:05.511Z,19.37
2018-08-17T10:58:34.409Z,21.53
2018-08-17T11:01:03.021Z,17.33
2018-08-17T11:03:31.706Z,16.23
2018-08-17T11:06:00.346Z,12.60
2018-08-17T11:08:28.984Z,13.33
2018-08-17T11:10:57.631Z,8.37
2018-08-17T11:13:26.282Z,4.90
2018-08-17T11:15:54.952Z,5.43
2018-08-17T11:18:23.604Z,4.00
2018-08-17T11:20:54.541Z,3.47
2018-08-17T11:23:23.278Z,2.80
2018-08-17T11:25:51.881Z,3.27
2018-08-17T11:28:20.469Z,4.50
2018-08-17T11:30:49.077Z,3.47
2018-08-17T11:33:19.705Z,3.20
2018-08-17T11:35:48.323Z,4.27
2018-08-17T11:38:23.469Z,4.37
2018-08-17T11:40:52.042Z,5.57
2018-08-17T11:43:20.713Z,5.27
2018-08-17T11:45:49.352Z,5.73
2018-08-17T11:48:26.430Z,5.97
2018-08-17T11:50:55.922Z,4.97
2018-08-17T11:53:24.644Z,5.27
2018-08-17T11:55:53.205Z,4.73
2018-08-17T11:58:21.840Z,4.60
2018-08-17T12:00:50.421Z,4.97
2018-08-17T12:03:19.074Z,6.33
2018-08-17T12:05:47.662Z,11.03
2018-08-17T12:08:16.409Z,8.13
2018-08-17T12:10:49.789Z,7.27
2018-08-17T12:13:18.764Z,6.20
2018-08-17T12:15:52.625Z,7.53
2018-08-17T12:18:21.269Z,8.90
2018-08-17T12:20:49.859Z,8.90
2018-08-17T12:23:18.474Z,9.63
2018-08-17T12:25:52.393Z,11.33
2018-08-17T12:28:21.013Z,9.63
2018-08-17T12:30:49.625Z,8.53
2018-08-17T12:33:18.317Z,8.77
2018-08-17T12:35:46.933Z,11.30
2018-08-17T12:38:16.581Z,8.07
2018-08-17T12:40:50.506Z,8.87
2018-08-17T12:43:20.297Z,25.03
2018-08-17T12:45:48.928Z,13.57
2018-08-17T12:48:17.751Z,7.10
2018-08-17T12:50:46.509Z,7.70
2018-08-17T12:53:15.393Z,8.10
2018-08-17T12:55:44.381Z,8.40
2018-08-17T12:58:13.661Z,8.10
2018-08-17T13:00:42.296Z,8.70
2018-08-17T13:03:10.913Z,10.80
2018-08-17T13:05:39.589Z,9.53
2018-08-17T13:08:09.066Z,10.60
2018-08-17T13:10:37.927Z,12.07
2018-08-17T13:13:08.940Z,14.23
2018-08-17T13:15:38.311Z,13.77
2018-08-17T13:18:15.738Z,15.07
2018-08-17T13:20:44.908Z,15.17
2018-08-17T13:23:13.533Z,16.23
2018-08-17T13:25:42.205Z,15.43
2018-08-17T13:28:11.155Z,14.90
2018-08-17T13:30:39.930Z,14.87
2018-08-17T13:33:08.991Z,15.67
2018-08-17T13:35:37.607Z,17.90
2018-08-17T13:38:06.725Z,15.90
2018-08-17T13:40:35.406Z,16.60
2018-08-17T13:43:04.117Z,18.90
2018-08-17T13:45:32.715Z,18.83
2018-08-17T13:48:01.333Z,17.23
2018-08-17T13:50:29.958Z,17.00
2018-08-17T13:52:58.753Z,22.13
2018-08-17T13:55:27.432Z,19.40
2018-08-17T13:57:56.013Z,21.40
2018-08-17T14:00:24.605Z,23.30
2018-08-17T14:02:53.257Z,28.47
2018-08-17T14:05:21.885Z,22.80
2018-08-17T14:07:50.612Z,19.80
2018-08-17T14:10:19.201Z,21.03
2018-08-17T14:12:47.843Z,19.73
2018-08-17T14:15:16.468Z,17.30
2018-08-17T14:17:45.085Z,16.00
2018-08-17T14:20:15.872Z,16.33
2018-08-17T14:22:44.493Z,16.40
2018-08-17T14:25:13.124Z,13.50
2018-08-17T14:27:41.923Z,20.03
2018-08-17T14:30:14.694Z,12.17
2018-08-17T14:32:43.933Z,14.17
2018-08-17T14:35:12.792Z,10.70
2018-08-17T14:37:41.341Z,11.70
2018-08-17T14:40:10.658Z,10.47
2018-08-17T14:42:39.940Z,12.17
2018-08-17T14:45:09.581Z,11.40
2018-08-17T14:47:38.572Z,12.80
2018-08-17T14:50:09.467Z,11.53
2018-08-17T14:52:38.309Z,10.10
2018-08-17T14:55:07.237Z,9.50
2018-08-17T14:57:38.045Z,12.07
2018-08-17T15:00:10.224Z,10.50
2018-08-17T15:02:38.879Z,8.30
2018-08-17T15:05:09.218Z,9.20
2018-08-17T15:07:37.982Z,8.40
2018-08-17T15:10:08.900Z,8.30
2018-08-17T15:12:37.553Z,9.17
2018-08-17T15:15:06.557Z,12.07
2018-08-17T15:17:35.169Z,8.33
2018-08-17T15:20:04.030Z,13.47
2018-08-17T15:22:32.661Z,10.30
2018-08-17T15:25:01.341Z,9.50
2018-08-17T15:27:29.980Z,8.50
2018-08-17T15:29:58.577Z,8.07
2018-08-17T15:32:27.302Z,9.57
2018-08-17T15:34:55.925Z,10.00
2018-08-17T15:37:24.618Z,7.67
2018-08-17T15:39:53.426Z,10.20
2018-08-17T15:42:22.124Z,10.37
2018-08-17T15:44:50.732Z,10.70
2018-08-17T15:47:19.437Z,8.90
2018-08-17T15:50:21.217Z,10.70
2018-08-17T15:52:49.988Z,10.13
2018-08-17T15:55:18.625Z,8.40
2018-08-17T15:57:47.674Z,12.90
2018-08-17T16:00:19.338Z,8.90
2018-08-17T16:02:48.084Z,10.20
2018-08-17T16:05:16.877Z,8.40
2018-08-17T16:07:45.605Z,13.20
2018-08-17T16:10:15.378Z,11.10
2018-08-17T16:12:44.507Z,8.70
2018-08-17T16:15:13.139Z,8.10
2018-08-17T16:17:41.705Z,5.83
2018-08-17T16:20:11.880Z,7.70
2018-08-17T16:22:41.136Z,8.00
2018-08-17T16:25:10.629Z,7.77
2018-08-17T16:27:39.796Z,8.00
2018-08-17T16:30:11.277Z,8.03
2018-08-17T16:32:40.114Z,6.87
2018-08-17T16:35:09.149Z,6.30
2018-08-17T16:37:47.986Z,6.40
2018-08-17T16:40:16.937Z,9.00
2018-08-17T16:42:49.722Z,6.57
2018-08-17T16:45:18.469Z,10.13
2018-08-17T16:47:47.135Z,8.37
2018-08-17T16:50:15.881Z,7.47
2018-08-17T16:52:44.469Z,6.13
2018-08-17T16:55:13.162Z,4.57
2018-08-17T16:57:41.753Z,6.53
2018-08-17T17:00:11.640Z,9.03
2018-08-17T17:02:40.547Z,4.93
2018-08-17T17:05:09.269Z,5.57
2018-08-17T17:07:37.851Z,9.77
2018-08-17T17:10:09.097Z,7.43
2018-08-17T17:12:37.790Z,9.73
2018-08-17T17:15:18.817Z,8.43
2018-08-17T17:17:56.853Z,8.00
2018-08-17T17:20:26.044Z,7.60
2018-08-17T17:22:59.092Z,10.90
2018-08-17T17:25:28.248Z,6.63
2018-08-17T17:27:56.902Z,7.63
2018-08-17T17:30:30.465Z,9.10
2018-08-17T17:32:59.140Z,8.30
2018-08-17T17:35:27.769Z,7.70
2018-08-17T17:37:56.405Z,7.37
2018-08-17T17:40:25.575Z,11.70
2018-08-17T17:42:54.202Z,7.23
2018-08-17T17:45:22.882Z,8.00
2018-08-17T17:47:51.470Z,7.80
2018-08-17T17:50:20.184Z,9.37
2018-08-17T17:52:48.834Z,9.27
2018-08-17T17:55:17.450Z,9.20
2018-08-17T17:57:50.509Z,9.60
2018-08-17T18:00:19.126Z,10.83
2018-08-17T18:02:48.834Z,9.43
2018-08-17T18:05:18.613Z,9.10
2018-08-17T18:07:48.202Z,9.27
2018-08-17T18:10:19.258Z,9.57
2018-08-17T18:12:48.146Z,10.70
2018-08-17T18:15:16.717Z,8.57
2018-08-17T18:17:45.416Z,9.00
2018-08-17T18:20:14.603Z,7.37
2018-08-17T18:22:43.322Z,8.60
2018-08-17T18:25:18.082Z,11.37
2018-08-17T18:27:47.570Z,8.33
2018-08-17T18:30:16.275Z,9.67
2018-08-17T18:32:45.417Z,5.37
2018-08-17T18:35:14.140Z,7.37
2018-08-17T18:37:42.810Z,8.10
2018-08-17T18:40:12.285Z,9.13
2018-08-17T18:42:41.032Z,9.00
2018-08-17T18:45:09.838Z,12.10
2018-08-17T18:47:38.544Z,6.97
2018-08-17T18:50:08.876Z,10.17
2018-08-17T18:52:37.574Z,7.17
2018-08-17T18:55:06.328Z,9.83
2018-08-17T18:57:35.045Z,12.87
2018-08-17T19:00:05.246Z,7.47
2018-08-17T19:02:33.873Z,4.60
2018-08-17T19:05:02.523Z,10.70
2018-08-17T19:07:31.142Z,6.60
2018-08-17T19:09:59.796Z,7.17
2018-08-17T19:12:28.404Z,8.10
2018-08-17T19:14:57.018Z,5.83
2018-08-17T19:17:28.001Z,8.07
2018-08-17T19:19:56.660Z,11.30
2018-08-17T19:22:25.512Z,5.37
2018-08-17T19:24:54.197Z,8.73
2018-08-17T19:27:28.242Z,9.43
2018-08-17T19:29:56.921Z,6.90
2018-08-17T19:32:25.755Z,8.00
2018-08-17T19:34:54.402Z,6.43
2018-08-17T19:37:23.101Z,7.00
2018-08-17T19:39:51.799Z,3.57
2018-08-17T19:42:20.877Z,9.10
2018-08-17T19:44:49.741Z,8.20
2018-08-17T19:47:18.409Z,14.23
2018-08-17T19:49:47.146Z,9.20
2018-08-17T19:52:15.855Z,10.43
2018-08-17T19:54:44.546Z,8.70
2018-08-17T19:57:13.188Z,5.17
2018-08-17T19:59:41.812Z,8.23
2018-08-17T20:02:10.516Z,7.37
2018-08-17T20:04:39.163Z,10.23
2018-08-17T20:07:07.801Z,5.70
2018-08-17T20:09:36.583Z,7.97
2018-08-17T20:12:05.384Z,6.87
2018-08-17T20:14:34.045Z,8.27
2018-08-17T20:17:03.011Z,10.00
2018-08-17T20:19:37.001Z,8.23
2018-08-17T20:22:10.121Z,9.77
2018-08-17T20:24:38.713Z,15.23
2018-08-17T20:27:13.028Z,9.90
2018-08-17T20:29:41.847Z,11.10
2018-08-17T20:32:10.573Z,16.17
2018-08-17T20:34:42.425Z,11.67
2018-08-17T20:37:11.949Z,13.03
2018-08-17T20:39:41.731Z,9.83
2018-08-17T20:42:10.996Z,8.47
2018-08-17T20:44:39.647Z,13.13
2018-08-17T20:47:08.902Z,9.53
2018-08-17T20:49:37.724Z,9.03
2018-08-17T20:52:06.716Z,13.63
2018-08-17T20:54:37.339Z,11.60
2018-08-17T20:57:06.013Z,15.60
2018-08-17T20:59:34.656Z,13.00
2018-08-17T21:02:03.380Z,7.87
2018-08-17T21:04:32.002Z,8.17
2018-08-17T21:07:00.607Z,9.07
2018-08-17T21:09:29.320Z,11.50
2018-08-17T21:11:57.965Z,9.50
2018-08-17T21:14:26.621Z,9.37
2018-08-17T21:16:55.217Z,11.50
2018-08-17T21:19:30.753Z,8.57
2018-08-17T21:21:59.370Z,8.33
2018-08-17T21:24:28.094Z,9.10
2018-08-17T21:26:56.676Z,9.93
2018-08-17T21:29:25.473Z,12.73
2018-08-17T21:31:54.081Z,13.80
2018-08-17T21:34:22.771Z,8.80
2018-08-17T21:36:52.546Z,7.60
2018-08-17T21:39:22.010Z,9.30
2018-08-17T21:41:52.170Z,11.90
2018-08-17T21:44:21.622Z,7.77
2018-08-17T21:46:56.758Z,13.03
2018-08-17T21:49:26.611Z,11.27
2018-08-17T21:51:58.632Z,11.50
2018-08-17T21:54:29.835Z,9.57
2018-08-17T21:56:59.040Z,9.07
2018-08-17T21:59:34.672Z,10.60
2018-08-17T22:02:04.501Z,9.00
2018-08-17T22:04:33.945Z,10.63
2018-08-17T22:07:06.929Z,6.57
2018-08-17T22:09:38.415Z,10.53
2018-08-17T22:12:07.785Z,8.50
2018-08-17T22:14:36.785Z,10.10
2018-08-17T22:17:05.814Z,10.83
2018-08-17T22:19:41.177Z,11.97
2018-08-17T22:22:11.646Z,9.90
2018-08-17T22:24:49.417Z,7.73
2018-08-17T22:27:19.332Z,9.73
2018-08-17T22:29:51.183Z,7.97
2018-08-17T22:32:20.234Z,14.70
2018-08-17T22:34:49.417Z,11.83
2018-08-17T22:37:18.228Z,6.93
2018-08-17T22:39:47.142Z,6.87
2018-08-17T22:42:23.464Z,7.40
2018-08-17T22:44:52.108Z,8.90
2018-08-17T22:47:24.294Z,9.93
2018-08-17T22:49:53.797Z,10.60
2018-08-17T22:52:22.477Z,9.57
2018-08-17T22:54:59.027Z,8.63
2018-08-17T22:57:28.513Z,11.40
2018-08-17T23:00:10.266Z,9.47
2018-08-17T23:02:40.090Z,9.90
2018-08-17T23:05:10.613Z,11.00
2018-08-17T23:07:39.374Z,15.50
2018-08-17T23:10:12.124Z,17.43
2018-08-17T23:12:40.873Z,9.83
2018-08-17T23:15:10.521Z,12.13
2018-08-17T23:17:39.719Z,13.20
2018-08-17T23:20:08.990Z,8.63
2018-08-17T23:22:50.146Z,9.33
2018-08-17T23:25:18.842Z,6.03
2018-08-17T23:27:48.661Z,8.67
2018-08-17T23:30:17.316Z,13.77
2018-08-17T23:32:46.298Z,9.20
2018-08-17T23:35:14.965Z,8.53
2018-08-17T23:37:43.674Z,7.60
2018-08-17T23:40:12.545Z,12.60
2018-08-17T23:42:41.189Z,16.17
2018-08-17T23:45:11.740Z,9.97
2018-08-17T23:47:40.735Z,13.70
2018-08-17T23:50:10.760Z,10.13
2018-08-17T23:52:39.563Z,9.70
2018-08-17T23:55:11.427Z,10.73
2018-08-17T23:57:40.097Z,11.03
